sensor_id;sensor_type;location;lat;lon;timestamp;pressure;altitude;pressure_sealevel;temperature;humidity
50650;BME280;36621;60.058;30.346;2023-05-08T00:06:08;102817.44;;;6.64;46.77
50650;BME280;36621;60.058;30.346;2023-05-08T00:13:40;102822.25;;;6.62;46.58
50650;BME280;36621;60.058;30.346;2023-05-08T00:21:13;102791.94;;;6.37;46.36
50650;BME280;36621;60.058;30.346;2023-05-08T00:28:45;102820.31;;;6.56;46.14
50650;BME280;36621;60.058;30.346;2023-05-08T00:36:17;102771.22;;;6.29;45.81
50650;BME280;36621;60.058;30.346;2023-05-08T00:43:51;102823.66;;;6.58;45.76
50650;BME280;36621;60.058;30.346;2023-05-08T00:51:23;102838.91;;;6.59;45.98
50650;BME280;36621;60.058;30.346;2023-05-08T00:58:56;102763.00;;;6.22;45.69
50650;BME280;36621;60.058;30.346;2023-05-08T01:06:28;102828.25;;;6.57;45.89
50650;BME280;36621;60.058;30.346;2023-05-08T01:14:08;102811.47;;;6.47;45.26
50650;BME280;36621;60.058;30.346;2023-05-08T01:21:46;102834.31;;;6.59;45.67
50650;BME280;36621;60.058;30.346;2023-05-08T01:29:42;102829.88;;;6.73;45.25
50650;BME280;36621;60.058;30.346;2023-05-08T01:37:26;102803.66;;;6.37;46.31
50650;BME280;36621;60.058;30.346;2023-05-08T01:45:02;102778.13;;;6.10;46.46
50650;BME280;36621;60.058;30.346;2023-05-08T01:52:42;102853.41;;;6.66;45.99
50650;BME280;36621;60.058;30.346;2023-05-08T02:00:18;102849.06;;;7.00;45.48
50650;BME280;36621;60.058;30.346;2023-05-08T02:07:51;102793.88;;;6.93;44.57
50650;BME280;36621;60.058;30.346;2023-05-08T02:15:26;102837.00;;;7.73;43.81
50650;BME280;36621;60.058;30.346;2023-05-08T02:23:02;102821.06;;;8.25;42.71
50650;BME280;36621;60.058;30.346;2023-05-08T02:30:34;102850.72;;;8.81;41.77
50650;BME280;36621;60.058;30.346;2023-05-08T02:38:09;102783.22;;;9.10;40.62
50650;BME280;36621;60.058;30.346;2023-05-08T02:45:46;102845.25;;;10.39;38.99
50650;BME280;36621;60.058;30.346;2023-05-08T02:53:25;102853.38;;;10.77;38.31
50650;BME280;36621;60.058;30.346;2023-05-08T03:01:03;102838.66;;;10.08;40.17
50650;BME280;36621;60.058;30.346;2023-05-08T03:08:39;102847.25;;;10.82;38.42
50650;BME280;36621;60.058;30.346;2023-05-08T03:16:17;102851.25;;;11.49;37.61
50650;BME280;36621;60.058;30.346;2023-05-08T03:23:52;102847.44;;;11.50;37.95
50650;BME280;36621;60.058;30.346;2023-05-08T03:31:25;102810.63;;;10.83;37.57
50650;BME280;36621;60.058;30.346;2023-05-08T03:39:00;102728.56;;;10.97;36.63
50650;BME280;36621;60.058;30.346;2023-05-08T03:46:33;102849.78;;;12.62;34.98
50650;BME280;36621;60.058;30.346;2023-05-08T03:54:07;102825.75;;;13.12;34.02
50650;BME280;36621;60.058;30.346;2023-05-08T04:01:45;102850.72;;;13.86;33.69
50650;BME280;36621;60.058;30.346;2023-05-08T04:09:30;102836.69;;;14.57;32.84
50650;BME280;36621;60.058;30.346;2023-05-08T04:17:08;102842.38;;;15.41;31.48
50650;BME280;36621;60.058;30.346;2023-05-08T04:24:43;102830.66;;;17.09;27.97
50650;BME280;36621;60.058;30.346;2023-05-08T04:32:17;102856.88;;;19.21;24.70
50650;BME280;36621;60.058;30.346;2023-05-08T04:39:50;102856.88;;;18.54;26.02
50650;BME280;36621;60.058;30.346;2023-05-08T04:47:23;102772.50;;;17.95;26.02
50650;BME280;36621;60.058;30.346;2023-05-08T04:55:00;102675.00;;;19.16;23.33
50650;BME280;36621;60.058;30.346;2023-05-08T05:02:32;102829.06;;;22.26;21.05
50650;BME280;36621;60.058;30.346;2023-05-08T05:10:06;102846.84;;;23.43;19.76
50650;BME280;36621;60.058;30.346;2023-05-08T05:17:39;102846.38;;;24.05;19.18
50650;BME280;36621;60.058;30.346;2023-05-08T05:25:13;102846.47;;;25.13;17.77
50650;BME280;36621;60.058;30.346;2023-05-08T05:32:45;102823.31;;;25.62;17.15
50650;BME280;36621;60.058;30.346;2023-05-08T05:40:19;102850.22;;;26.33;16.65
50650;BME280;36621;60.058;30.346;2023-05-08T05:47:51;102868.63;;;25.99;16.21
50650;BME280;36621;60.058;30.346;2023-05-08T05:55:26;102862.00;;;23.92;18.01
50650;BME280;36621;60.058;30.346;2023-05-08T06:02:59;102830.31;;;22.86;19.06
50650;BME280;36621;60.058;30.346;2023-05-08T06:10:33;102857.13;;;18.27;24.63
50650;BME280;36621;60.058;30.346;2023-05-08T06:18:05;102854.22;;;15.41;27.94
50650;BME280;36621;60.058;30.346;2023-05-08T06:25:39;102816.81;;;13.93;29.42
50650;BME280;36621;60.058;30.346;2023-05-08T06:33:11;102862.94;;;13.67;30.30
50650;BME280;36621;60.058;30.346;2023-05-08T06:40:44;102856.53;;;13.49;30.22
50650;BME280;36621;60.058;30.346;2023-05-08T06:48:17;102851.16;;;13.19;31.02
50650;BME280;36621;60.058;30.346;2023-05-08T06:55:50;102831.22;;;12.88;31.15
50650;BME280;36621;60.058;30.346;2023-05-08T07:03:23;102879.28;;;13.02;30.45
50650;BME280;36621;60.058;30.346;2023-05-08T07:10:56;102828.13;;;12.73;29.87
50650;BME280;36621;60.058;30.346;2023-05-08T07:18:28;102677.91;;;11.61;28.98
50650;BME280;36621;60.058;30.346;2023-05-08T07:26:01;102874.97;;;12.83;29.27
50650;BME280;36621;60.058;30.346;2023-05-08T07:33:34;102834.97;;;12.51;28.41
50650;BME280;36621;60.058;30.346;2023-05-08T07:41:07;102851.31;;;12.58;31.23
50650;BME280;36621;60.058;30.346;2023-05-08T07:48:39;102848.50;;;12.34;29.13
50650;BME280;36621;60.058;30.346;2023-05-08T07:56:13;102879.72;;;12.76;28.83
50650;BME280;36621;60.058;30.346;2023-05-08T08:03:51;102885.28;;;12.69;27.82
50650;BME280;36621;60.058;30.346;2023-05-08T08:11:25;102859.91;;;12.74;27.56
50650;BME280;36621;60.058;30.346;2023-05-08T08:18:58;102893.69;;;12.86;26.40
50650;BME280;36621;60.058;30.346;2023-05-08T08:26:31;102830.78;;;12.49;26.06
50650;BME280;36621;60.058;30.346;2023-05-08T08:34:03;102884.63;;;12.85;26.11
50650;BME280;36621;60.058;30.346;2023-05-08T08:41:38;102849.91;;;12.67;25.37
50650;BME280;36621;60.058;30.346;2023-05-08T08:49:12;102886.03;;;12.88;26.06
50650;BME280;36621;60.058;30.346;2023-05-08T08:56:52;102863.75;;;12.73;25.85
50650;BME280;36621;60.058;30.346;2023-05-08T09:04:26;102841.28;;;12.52;27.15
50650;BME280;36621;60.058;30.346;2023-05-08T09:12:00;102873.06;;;12.95;28.37
50650;BME280;36621;60.058;30.346;2023-05-08T09:19:32;102865.06;;;12.82;26.58
50650;BME280;36621;60.058;30.346;2023-05-08T09:27:16;102889.38;;;12.78;27.61
50650;BME280;36621;60.058;30.346;2023-05-08T09:34:52;102823.34;;;12.26;28.60
50650;BME280;36621;60.058;30.346;2023-05-08T09:42:36;102849.09;;;12.79;28.06
50650;BME280;36621;60.058;30.346;2023-05-08T09:50:11;102859.72;;;12.87;28.04
50650;BME280;36621;60.058;30.346;2023-05-08T09:57:54;102828.94;;;12.85;28.27
50650;BME280;36621;60.058;30.346;2023-05-08T10:05:32;102843.97;;;12.82;28.23
50650;BME280;36621;60.058;30.346;2023-05-08T10:13:23;102845.16;;;12.86;26.85
50650;BME280;36621;60.058;30.346;2023-05-08T10:20:57;102852.19;;;12.82;27.23
50650;BME280;36621;60.058;30.346;2023-05-08T10:28:35;102852.56;;;12.86;27.55
50650;BME280;36621;60.058;30.346;2023-05-08T10:36:11;102824.53;;;12.72;27.42
50650;BME280;36621;60.058;30.346;2023-05-08T10:43:46;102835.53;;;12.96;27.13
50650;BME280;36621;60.058;30.346;2023-05-08T10:51:25;102762.91;;;12.51;27.36
50650;BME280;36621;60.058;30.346;2023-05-08T10:59:01;102811.53;;;12.91;27.68
50650;BME280;36621;60.058;30.346;2023-05-08T11:06:45;102824.91;;;12.99;26.13
50650;BME280;36621;60.058;30.346;2023-05-08T11:14:18;102776.16;;;12.66;27.11
50650;BME280;36621;60.058;30.346;2023-05-08T11:22:15;102810.13;;;13.00;26.44
50650;BME280;36621;60.058;30.346;2023-05-08T11:30:22;102805.97;;;12.98;26.91
50650;BME280;36621;60.058;30.346;2023-05-08T11:38:14;102799.28;;;13.17;26.85
50650;BME280;36621;60.058;30.346;2023-05-08T11:45:51;102804.31;;;13.09;26.35
50650;BME280;36621;60.058;30.346;2023-05-08T11:53:23;102763.31;;;12.78;26.17
50650;BME280;36621;60.058;30.346;2023-05-08T12:00:57;102795.13;;;13.03;26.84
50650;BME280;36621;60.058;30.346;2023-05-08T12:08:29;102753.63;;;12.88;26.03
50650;BME280;36621;60.058;30.346;2023-05-08T12:16:02;102737.44;;;12.86;25.82
50650;BME280;36621;60.058;30.346;2023-05-08T12:23:35;102723.13;;;12.96;25.92
50650;BME280;36621;60.058;30.346;2023-05-08T12:31:09;102719.31;;;12.85;25.95
50650;BME280;36621;60.058;30.346;2023-05-08T12:38:42;102758.38;;;13.16;25.40
50650;BME280;36621;60.058;30.346;2023-05-08T12:46:15;102722.41;;;13.00;25.60
50650;BME280;36621;60.058;30.346;2023-05-08T12:53:49;102746.69;;;13.20;25.63
50650;BME280;36621;60.058;30.346;2023-05-08T13:01:22;102731.66;;;13.23;26.45
50650;BME280;36621;60.058;30.346;2023-05-08T13:08:55;102735.09;;;13.30;25.33
50650;BME280;36621;60.058;30.346;2023-05-08T13:16:28;102705.63;;;13.26;25.14
50650;BME280;36621;60.058;30.346;2023-05-08T13:24:00;102708.63;;;13.36;25.24
50650;BME280;36621;60.058;30.346;2023-05-08T13:31:34;102619.81;;;12.84;25.30
50650;BME280;36621;60.058;30.346;2023-05-08T13:39:06;102690.03;;;13.38;25.44
50650;BME280;36621;60.058;30.346;2023-05-08T13:46:39;102661.72;;;13.09;25.94
50650;BME280;36621;60.058;30.346;2023-05-08T13:54:12;102693.09;;;13.30;26.08
50650;BME280;36621;60.058;30.346;2023-05-08T14:01:45;102683.72;;;13.37;25.42
50650;BME280;36621;60.058;30.346;2023-05-08T14:09:18;102692.53;;;13.40;25.32
50650;BME280;36621;60.058;30.346;2023-05-08T14:16:51;102677.94;;;13.51;25.97
50650;BME280;36621;60.058;30.346;2023-05-08T14:24:24;102649.56;;;13.33;25.85
50650;BME280;36621;60.058;30.346;2023-05-08T14:32:02;102666.09;;;13.50;25.94
50650;BME280;36621;60.058;30.346;2023-05-08T14:39:37;102639.22;;;13.24;25.96
50650;BME280;36621;60.058;30.346;2023-05-08T14:47:11;102667.81;;;13.40;26.25
50650;BME280;36621;60.058;30.346;2023-05-08T14:54:43;102594.41;;;12.89;26.15
50650;BME280;36621;60.058;30.346;2023-05-08T15:02:19;102597.34;;;12.99;26.01
50650;BME280;36621;60.058;30.346;2023-05-08T15:09:51;102638.97;;;13.37;26.50
50650;BME280;36621;60.058;30.346;2023-05-08T15:17:25;102602.78;;;13.11;26.64
50650;BME280;36621;60.058;30.346;2023-05-08T15:24:57;102641.13;;;13.35;26.55
50650;BME280;36621;60.058;30.346;2023-05-08T15:32:36;102593.63;;;13.06;26.66
50650;BME280;36621;60.058;30.346;2023-05-08T15:40:11;102632.44;;;13.26;26.73
50650;BME280;36621;60.058;30.346;2023-05-08T15:47:44;102631.13;;;13.17;27.26
50650;BME280;36621;60.058;30.346;2023-05-08T15:55:20;102594.97;;;12.91;27.22
50650;BME280;36621;60.058;30.346;2023-05-08T16:02:53;102636.03;;;13.15;26.86
50650;BME280;36621;60.058;30.346;2023-05-08T16:10:25;102583.56;;;12.82;27.32
50650;BME280;36621;60.058;30.346;2023-05-08T16:18:00;102630.44;;;13.10;26.93
50650;BME280;36621;60.058;30.346;2023-05-08T16:25:33;102512.56;;;12.28;26.81
50650;BME280;36621;60.058;30.346;2023-05-08T16:33:06;102619.06;;;12.89;26.36
50650;BME280;36621;60.058;30.346;2023-05-08T16:40:48;102415.03;;;11.51;26.36
50650;BME280;36621;60.058;30.346;2023-05-08T16:48:21;102603.75;;;12.64;26.76
50650;BME280;36621;60.058;30.346;2023-05-08T16:55:54;102561.38;;;12.31;26.05
50650;BME280;36621;60.058;30.346;2023-05-08T17:03:32;102616.81;;;12.86;26.32
50650;BME280;36621;60.058;30.346;2023-05-08T17:11:05;102613.03;;;13.16;27.22
50650;BME280;36621;60.058;30.346;2023-05-08T17:18:38;102587.56;;;13.03;27.03
50650;BME280;36621;60.058;30.346;2023-05-08T17:26:10;102615.47;;;13.00;26.99
50650;BME280;36621;60.058;30.346;2023-05-08T17:33:43;102603.38;;;12.61;27.94
50650;BME280;36621;60.058;30.346;2023-05-08T17:41:15;102623.66;;;12.24;28.65
50650;BME280;36621;60.058;30.346;2023-05-08T17:48:53;102624.72;;;11.99;29.36
50650;BME280;36621;60.058;30.346;2023-05-08T17:56:29;102484.91;;;10.81;29.83
50650;BME280;36621;60.058;30.346;2023-05-08T18:04:03;102585.19;;;11.11;30.56
50650;BME280;36621;60.058;30.346;2023-05-08T18:11:35;102644.63;;;11.16;31.13
50650;BME280;36621;60.058;30.346;2023-05-08T18:19:09;102617.84;;;10.87;32.01
50650;BME280;36621;60.058;30.346;2023-05-08T18:26:42;102594.94;;;10.51;32.33
50650;BME280;36621;60.058;30.346;2023-05-08T18:34:15;102653.31;;;10.75;32.83
50650;BME280;36621;60.058;30.346;2023-05-08T18:41:47;102603.75;;;10.28;33.16
50650;BME280;36621;60.058;30.346;2023-05-08T18:49:23;102596.16;;;10.12;33.93
50650;BME280;36621;60.058;30.346;2023-05-08T18:56:58;102652.88;;;10.28;34.06
50650;BME280;36621;60.058;30.346;2023-05-08T19:04:35;102525.41;;;9.34;34.20
50650;BME280;36621;60.058;30.346;2023-05-08T19:12:13;102648.75;;;9.94;34.64
50650;BME280;36621;60.058;30.346;2023-05-08T19:19:46;102662.00;;;9.97;35.42
50650;BME280;36621;60.058;30.346;2023-05-08T19:27:19;102596.91;;;9.43;36.81
50650;BME280;36621;60.058;30.346;2023-05-08T19:34:54;102521.34;;;8.80;37.54
50650;BME280;36621;60.058;30.346;2023-05-08T19:42:28;102566.78;;;8.86;38.45
50650;BME280;36621;60.058;30.346;2023-05-08T19:50:05;102660.66;;;9.42;38.35
50650;BME280;36621;60.058;30.346;2023-05-08T19:57:40;102548.44;;;8.61;39.03
50650;BME280;36621;60.058;30.346;2023-05-08T20:05:18;102622.88;;;9.07;40.13
50650;BME280;36621;60.058;30.346;2023-05-08T20:12:52;102624.38;;;8.90;40.76
50650;BME280;36621;60.058;30.346;2023-05-08T20:20:29;102525.53;;;8.10;40.59
50650;BME280;36621;60.058;30.346;2023-05-08T20:28:02;102561.31;;;8.21;40.74
50650;BME280;36621;60.058;30.346;2023-05-08T20:35:36;102645.38;;;8.76;40.36
50650;BME280;36621;60.058;30.346;2023-05-08T20:43:09;102572.19;;;8.14;41.09
50650;BME280;36621;60.058;30.346;2023-05-08T20:50:43;102638.31;;;8.55;41.74
50650;BME280;36621;60.058;30.346;2023-05-08T20:58:17;102602.13;;;8.21;42.19
50650;BME280;36621;60.058;30.346;2023-05-08T21:05:55;102595.59;;;8.22;41.82
50650;BME280;36621;60.058;30.346;2023-05-08T21:13:29;102634.53;;;8.35;42.71
50650;BME280;36621;60.058;30.346;2023-05-08T21:21:13;102632.25;;;8.52;42.04
50650;BME280;36621;60.058;30.346;2023-05-08T21:28:47;102545.63;;;7.82;43.98
50650;BME280;36621;60.058;30.346;2023-05-08T21:36:20;102619.03;;;8.36;44.48
50650;BME280;36621;60.058;30.346;2023-05-08T21:43:52;102635.38;;;8.36;43.93
50650;BME280;36621;60.058;30.346;2023-05-08T21:51:25;102622.63;;;8.30;43.15
50650;BME280;36621;60.058;30.346;2023-05-08T21:58:58;102471.63;;;7.27;42.77
50650;BME280;36621;60.058;30.346;2023-05-08T22:06:31;102630.97;;;8.22;43.37
50650;BME280;36621;60.058;30.346;2023-05-08T22:14:04;102568.47;;;7.81;43.98
50650;BME280;36621;60.058;30.346;2023-05-08T22:21:44;102626.19;;;8.24;43.61
50650;BME280;36621;60.058;30.346;2023-05-08T22:29:28;102579.31;;;7.88;44.32
50650;BME280;36621;60.058;30.346;2023-05-08T22:37:02;102609.22;;;8.02;43.71
50650;BME280;36621;60.058;30.346;2023-05-08T22:44:35;102618.44;;;8.07;42.27
50650;BME280;36621;60.058;30.346;2023-05-08T22:52:09;102613.41;;;8.11;41.45
50650;BME280;36621;60.058;30.346;2023-05-08T22:59:41;102566.97;;;7.72;41.44
50650;BME280;36621;60.058;30.346;2023-05-08T23:07:14;102460.50;;;7.02;40.50
50650;BME280;36621;60.058;30.346;2023-05-08T23:14:46;102629.94;;;8.03;38.37
50650;BME280;36621;60.058;30.346;2023-05-08T23:22:19;102618.22;;;8.09;38.02
50650;BME280;36621;60.058;30.346;2023-05-08T23:29:51;102524.94;;;7.41;38.05
50650;BME280;36621;60.058;30.346;2023-05-08T23:37:25;102631.84;;;8.02;38.38
50650;BME280;36621;60.058;30.346;2023-05-08T23:44:57;102512.19;;;7.35;38.75
50650;BME280;36621;60.058;30.346;2023-05-08T23:52:30;102577.63;;;7.74;38.97
